Time;durP1;ratioP1;P1;durP2;ratioP2;P2;SDS_P1;SDS_P2;PMS_P1;PMS_P2;Temp;Humidity;BMP_temperature;BMP_pressure;BME280_temperature;BME280_humidity;BME280_pressure;Samples;Min_cycle;Max_cycle;Signal;HPM_P1;HPM_P2
2022/12/08 00:01:53;;;;;;;;;;;3.10;99.90;;;;;;4805544;29;20046;-86
2022/12/08 00:10:13;;;;;;;6.97;0.63;;;3.10;99.90;;;;;;4804408;29;20053;-87
2022/12/08 00:12:39;;;;;;;6.95;0.50;;;3.00;99.90;;;;;;4784273;29;20049;-87
2022/12/08 00:15:05;;;;;;;6.63;0.68;;;3.30;99.90;;;;;;4803732;29;20569;-87
2022/12/08 00:17:31;;;;;;;6.70;0.55;;;2.90;99.90;;;;;;4804090;29;20046;-87
2022/12/08 00:19:56;;;;;;;5.55;0.93;;;2.90;99.90;;;;;;4803770;29;20042;-86
2022/12/08 00:22:28;;;;;;;3.17;0.40;;;2.90;99.90;;;;;;4803026;29;20510;-87
2022/12/08 00:25:07;;;;;;;7.57;0.80;;;2.90;99.90;;;;;;4801921;29;20721;-87
2022/12/08 00:27:33;;;;;;;4.88;0.75;;;2.90;99.90;;;;;;4799530;29;20039;-86
2022/12/08 00:29:58;;;;;;;5.30;0.50;;;2.90;99.90;;;;;;4803918;29;20045;-86
2022/12/08 00:32:30;;;;;;;4.38;0.75;;;2.90;99.90;;;;;;4802048;29;20046;-87
2022/12/08 00:35:00;;;;;;;7.78;1.17;;;3.10;99.90;;;;;;4800619;29;20038;-87
2022/12/08 00:37:25;;;;;;;10.65;1.17;;;2.80;99.90;;;;;;4804725;29;20070;-87
2022/12/08 00:39:51;;;;;;;6.28;0.93;;;2.80;99.90;;;;;;4787770;29;20070;-87
2022/12/08 00:42:22;;;;;;;4.88;0.63;;;2.80;99.90;;;;;;4800874;29;20467;-86
2022/12/08 00:44:51;;;;;;;3.28;0.82;;;2.60;99.90;;;;;;4803648;29;20128;-86
2022/12/08 00:47:20;;;;;;;3.58;0.60;;;2.70;99.90;;;;;;4803405;29;20480;-87
2022/12/08 00:49:50;;;;;;;3.75;0.70;;;2.60;99.90;;;;;;4784692;29;20130;-87
2022/12/08 00:52:20;;;;;;;5.90;0.82;;;2.70;99.90;;;;;;4804300;29;20058;-87
2022/12/08 00:54:50;;;;;;;5.97;0.60;;;2.70;99.90;;;;;;4804391;29;20050;-87
2022/12/08 00:57:15;;;;;;;6.85;1.02;;;2.70;99.90;;;;;;4804893;29;20042;-87
2022/12/08 00:59:41;;;;;;;5.10;0.60;;;2.70;99.90;;;;;;4805884;29;20065;-87
2022/12/08 01:02:06;;;;;;;8.93;1.00;;;2.80;99.90;;;;;;4804953;29;20425;-86
2022/12/08 01:04:32;;;;;;;7.95;1.23;;;2.90;99.90;;;;;;4803024;29;20043;-87
2022/12/08 01:07:00;;;;;;;6.75;0.95;;;2.60;99.90;;;;;;4819488;29;20053;-88
2022/12/08 01:09:26;;;;;;;6.53;0.77;;;2.60;99.90;;;;;;4801436;29;20046;-87
2022/12/08 01:11:52;;;;;;;3.83;0.68;;;3.20;99.90;;;;;;4786651;29;20103;-86
2022/12/08 01:14:18;;;;;;;3.30;0.52;;;2.70;99.90;;;;;;4819965;29;20046;-87
2022/12/08 01:17:09;;;;;;;7.22;1.13;;;2.70;99.90;;;;;;4804085;29;20046;-87
2022/12/08 01:19:36;;;;;;;4.70;0.60;;;2.70;99.90;;;;;;4803458;29;20062;-87
2022/12/08 01:22:01;;;;;;;4.40;0.65;;;2.70;99.90;;;;;;4785248;29;20068;-86
2022/12/08 01:24:27;;;;;;;4.00;0.55;;;2.70;99.90;;;;;;4801772;29;20046;-87
2022/12/08 01:26:53;;;;;;;5.40;0.45;;;2.70;99.90;;;;;;4803167;29;20078;-86
2022/12/08 01:29:25;;;;;;;6.68;0.43;;;2.70;99.90;;;;;;4804028;29;20042;-86
2022/12/08 01:31:51;;;;;;;6.72;1.02;;;2.60;99.90;;;;;;4799184;29;20038;-86
2022/12/08 01:34:16;;;;;;;7.45;1.50;;;2.70;99.90;;;;;;4803343;29;20125;-86
2022/12/08 01:36:43;;;;;;;5.10;1.13;;;2.80;99.90;;;;;;4802703;29;20077;-86
2022/12/08 01:39:34;;;;;;;4.78;0.90;;;2.80;99.90;;;;;;4818008;29;20058;-86
2022/12/08 01:42:00;;;;;;;4.88;0.88;;;2.80;99.90;;;;;;4804889;29;20123;-87
2022/12/08 01:44:27;;;;;;;5.35;0.77;;;2.80;99.90;;;;;;4803340;29;20492;-85
2022/12/08 01:46:54;;;;;;;4.53;0.68;;;3.30;99.90;;;;;;4803494;29;20057;-86
2022/12/08 01:49:21;;;;;;;5.40;0.80;;;2.90;99.90;;;;;;4803883;29;20065;-85
2022/12/08 01:51:57;;;;;;;3.67;0.50;;;2.90;99.90;;;;;;4817883;29;20099;-86
2022/12/08 01:54:26;;;;;;;7.53;0.80;;;2.90;99.90;;;;;;4802602;29;20047;-87
2022/12/08 01:57:08;;;;;;;5.45;0.60;;;2.90;99.90;;;;;;4788551;29;20093;-87
2022/12/08 01:59:40;;;;;;;3.75;0.70;;;2.90;99.90;;;;;;4802678;29;20141;-87
2022/12/08 02:02:08;;;;;;;3.95;0.50;;;3.00;99.90;;;;;;4801624;29;20395;-86
2022/12/08 02:04:37;;;;;;;6.22;1.02;;;3.50;99.90;;;;;;4786247;29;20262;-86
2022/12/08 02:07:05;;;;;;;5.63;0.57;;;3.00;99.90;;;;;;4800302;29;20042;-86
2022/12/08 02:09:31;;;;;;;5.28;0.80;;;3.00;99.90;;;;;;4801304;29;20058;-87
2022/12/08 02:11:58;;;;;;;4.43;0.57;;;3.30;99.90;;;;;;4798333;29;20030;-87
2022/12/08 02:14:25;;;;;;;4.82;0.60;;;3.00;99.90;;;;;;4803982;29;20050;-86
2022/12/08 02:17:42;;;;;;;4.22;0.63;;;3.00;99.90;;;;;;4784342;29;20043;-86
2022/12/08 02:20:47;;;;;;;5.30;0.75;;;3.10;99.90;;;;;;4774079;29;20085;-86
2022/12/08 02:23:49;;;;;;;4.65;0.63;;;3.00;99.90;;;;;;4800136;29;20051;-87
2022/12/08 02:26:36;;;;;;;5.28;0.65;;;3.00;99.90;;;;;;4787948;29;20077;-87
2022/12/08 02:29:44;;;;;;;3.28;0.40;;;3.00;99.90;;;;;;4816010;29;20046;-86
2022/12/08 02:32:34;;;;;;;5.28;0.47;;;2.90;99.90;;;;;;4800217;29;20050;-86
2022/12/08 02:35:46;;;;;;;6.10;0.40;;;3.10;99.90;;;;;;4801659;29;20054;-86
2022/12/08 02:38:30;;;;;;;3.10;0.70;;;2.90;99.90;;;;;;4798440;29;20098;-87
2022/12/08 02:41:56;;;;;;;6.30;0.70;;;2.90;99.90;;;;;;4800846;29;20154;-86
2022/12/08 02:45:16;;;;;;;5.20;0.85;;;2.90;99.90;;;;;;4813811;29;20633;-86
2022/12/08 02:47:43;;;;;;;2.75;0.73;;;2.90;99.90;;;;;;4802675;29;20038;-87
2022/12/08 02:50:09;;;;;;;2.22;0.25;;;2.90;99.90;;;;;;4802443;29;20129;-87
2022/12/08 02:52:45;;;;;;;2.03;0.40;;;2.90;99.90;;;;;;4800501;29;20046;-86
2022/12/08 02:55:24;;;;;;;;;;;3.00;99.90;;;;;;4801424;29;20074;-86
2022/12/08 02:58:12;;;;;;;4.22;0.52;;;3.00;99.90;;;;;;4801138;29;19932;-86
2022/12/08 03:00:55;;;;;;;2.53;0.30;;;3.00;99.90;;;;;;4802734;29;20112;-86
2022/12/08 03:03:48;;;;;;;3.65;0.30;;;3.00;99.90;;;;;;4815300;29;20038;-86
2022/12/08 03:06:22;;;;;;;4.05;0.75;;;3.00;99.90;;;;;;4797385;29;20758;-86
2022/12/08 03:08:57;;;;;;;3.13;0.43;;;3.00;99.90;;;;;;4804724;29;20070;-85
2022/12/08 03:11:43;;;;;;;3.95;0.52;;;3.10;99.90;;;;;;4785245;29;20081;-86
2022/12/08 03:14:22;;;;;;;4.88;0.55;;;3.30;99.90;;;;;;4803678;29;20053;-86
2022/12/08 03:16:59;;;;;;;3.80;0.40;;;3.00;99.90;;;;;;4817916;29;20046;-86
2022/12/08 03:19:42;;;;;;;3.88;0.43;;;3.10;99.90;;;;;;4804604;29;20062;-86
2022/12/08 03:22:10;;;;;;;4.57;0.40;;;3.00;99.90;;;;;;4815658;29;20050;-86
2022/12/08 03:24:43;;;;;;;2.97;0.47;;;3.00;99.90;;;;;;4801591;29;20058;-87
2022/12/08 03:27:20;;;;;;;5.50;0.30;;;3.00;99.90;;;;;;4799649;29;20054;-87
2022/12/08 03:29:48;;;;;;;6.28;0.43;;;3.00;99.90;;;;;;4805419;29;20046;-87
2022/12/08 03:32:29;;;;;;;6.20;0.70;;;3.30;99.90;;;;;;4791462;29;20051;-86
2022/12/08 03:34:59;;;;;;;3.30;1.00;;;3.00;99.90;;;;;;4803174;29;20051;-86
2022/12/08 03:37:26;;;;;;;8.70;0.68;;;3.00;99.90;;;;;;4819122;29;20098;-86
2022/12/08 03:39:52;;;;;;;2.90;0.50;;;3.10;99.90;;;;;;4803389;29;20071;-87
2022/12/08 03:42:18;;;;;;;5.45;0.50;;;2.60;99.90;;;;;;4790447;29;20081;-86
2022/12/08 03:45:00;;;;;;;3.25;0.45;;;3.00;99.90;;;;;;4804866;29;20046;-86
2022/12/08 03:47:25;;;;;;;4.65;0.70;;;3.00;99.90;;;;;;4790421;29;20487;-86
2022/12/08 03:49:54;;;;;;;2.38;0.93;;;2.90;99.90;;;;;;4805418;29;20046;-84
2022/12/08 03:52:20;;;;;;;2.22;0.30;;;3.00;99.90;;;;;;4801368;29;20042;-86
2022/12/08 03:54:55;;;;;;;4.50;0.43;;;3.70;99.90;;;;;;4819564;29;20074;-86
2022/12/08 03:57:20;;;;;;;2.13;0.40;;;3.00;99.90;;;;;;4805222;29;20500;-86
2022/12/08 03:59:49;;;;;;;1.77;0.10;;;2.90;99.90;;;;;;4804689;29;20047;-86
2022/12/08 04:02:34;;;;;;;1.58;0.10;;;2.90;99.90;;;;;;4820903;29;20228;-86
2022/12/08 04:04:59;;;;;;;2.28;0.15;;;2.90;99.90;;;;;;4802597;29;20137;-85
2022/12/08 04:07:25;;;;;;;0.57;0.20;;;2.90;99.90;;;;;;4786620;29;20504;-86
2022/12/08 04:09:52;;;;;;;3.00;0.20;;;2.90;99.90;;;;;;4805727;29;20042;-86
2022/12/08 04:12:24;;;;;;;1.45;0.20;;;2.80;99.90;;;;;;4801481;29;20501;-86
2022/12/08 04:14:50;;;;;;;1.13;0.20;;;2.80;99.90;;;;;;4802545;29;20047;-86
2022/12/08 04:17:15;;;;;;;1.27;0.10;;;2.80;99.90;;;;;;4783963;29;20045;-86
2022/12/08 04:19:41;;;;;;;1.98;0.30;;;2.70;99.90;;;;;;4818786;29;20047;-86
2022/12/08 04:22:12;;;;;;;1.25;0.10;;;2.70;99.90;;;;;;4804913;29;20054;-85
2022/12/08 04:24:51;;;;;;;0.17;0.15;;;2.70;99.90;;;;;;4799548;29;20054;-86
2022/12/08 04:27:16;;;;;;;2.47;0.30;;;2.70;99.90;;;;;;4787758;29;20046;-85
2022/12/08 04:29:49;;;;;;;1.42;0.30;;;2.60;99.90;;;;;;4804154;29;20038;-86
2022/12/08 04:32:24;;;;;;;3.03;0.30;;;2.60;99.90;;;;;;4820370;29;20050;-86
2022/12/08 04:34:50;;;;;;;5.82;0.43;;;2.60;99.90;;;;;;4784654;29;20034;-86
2022/12/08 04:37:16;;;;;;;0.98;0.20;;;2.60;99.90;;;;;;4802728;29;20071;-85
2022/12/08 04:39:41;;;;;;;2.17;0.30;;;2.90;99.90;;;;;;4801272;29;20043;-86
2022/12/08 04:42:07;;;;;;;4.07;0.35;;;2.70;99.90;;;;;;4798842;29;20129;-85
2022/12/08 04:44:33;;;;;;;3.70;0.40;;;2.70;99.90;;;;;;4800685;29;20059;-86
2022/12/08 04:47:05;;;;;;;4.20;0.30;;;2.80;99.90;;;;;;4818139;29;20066;-85
2022/12/08 04:49:31;;;;;;;2.40;0.40;;;2.60;99.90;;;;;;4802424;29;20042;-87
2022/12/08 04:52:00;;;;;;;3.15;0.30;;;2.70;99.90;;;;;;4802554;29;20038;-86
2022/12/08 04:54:28;;;;;;;2.28;0.40;;;2.70;99.90;;;;;;4802712;29;20045;-85
2022/12/08 04:57:01;;;;;;;4.85;0.60;;;3.40;99.90;;;;;;4817205;29;20107;-87
2022/12/08 04:59:26;;;;;;;1.40;0.40;;;2.80;99.90;;;;;;4813656;29;20046;-85
2022/12/08 05:01:52;;;;;;;1.77;0.63;;;2.80;99.90;;;;;;4819435;29;20062;-88
2022/12/08 05:04:18;;;;;;;1.95;0.50;;;2.80;99.90;;;;;;4805697;29;20066;-88
2022/12/08 05:06:45;;;;;;;4.10;0.60;;;2.80;99.90;;;;;;4804572;29;20053;-88
2022/12/08 05:09:11;;;;;;;3.55;0.80;;;2.80;99.90;;;;;;4804155;29;20510;-88
2022/12/08 05:11:40;;;;;;;2.45;0.47;;;3.90;99.90;;;;;;4805942;29;20047;-87
2022/12/08 05:14:11;;;;;;;4.13;0.40;;;2.90;99.90;;;;;;4804502;29;20081;-88
2022/12/08 05:16:38;;;;;;;1.10;0.35;;;3.40;99.90;;;;;;4791602;29;20557;-88
2022/12/08 05:19:04;;;;;;;3.20;0.40;;;2.90;99.90;;;;;;4820742;29;20050;-88
2022/12/08 05:21:30;;;;;;;1.58;0.50;;;2.90;99.90;;;;;;4821303;29;20049;-85
2022/12/08 05:23:58;;;;;;;2.58;0.38;;;3.00;99.90;;;;;;4788811;29;20046;-87
2022/12/08 05:26:23;;;;;;;2.25;0.40;;;3.70;99.90;;;;;;4801056;29;20130;-84
2022/12/08 05:28:49;;;;;;;2.97;0.60;;;3.00;99.90;;;;;;4809177;29;20421;-85
2022/12/08 05:31:16;;;;;;;4.13;0.65;;;3.10;99.90;;;;;;4797132;29;20120;-84
2022/12/08 05:33:43;;;;;;;3.20;0.50;;;3.70;99.90;;;;;;4781788;29;20053;-84
2022/12/08 05:36:11;;;;;;;4.50;1.13;;;3.10;99.90;;;;;;4811989;29;20178;-83
2022/12/08 05:38:37;;;;;;;6.10;0.50;;;3.10;99.90;;;;;;4800766;29;20555;-87
2022/12/08 05:41:08;;;;;;;2.85;0.77;;;3.10;99.90;;;;;;4799428;29;20100;-86
2022/12/08 05:43:49;;;;;;;2.95;0.93;;;3.20;99.90;;;;;;4804031;29;20502;-86
2022/12/08 05:46:44;;;;;;;4.87;0.63;;;3.30;99.90;;;;;;4800282;29;20128;-86
2022/12/08 05:49:10;;;;;;;3.03;0.50;;;3.20;99.90;;;;;;4799799;29;20316;-86
2022/12/08 05:51:36;;;;;;;3.55;0.52;;;3.20;99.90;;;;;;4780526;29;20058;-86
2022/12/08 05:54:02;;;;;;;4.38;0.75;;;3.20;99.90;;;;;;4801907;29;20046;-86
2022/12/08 05:56:31;;;;;;;3.17;0.65;;;3.30;99.90;;;;;;4807926;29;20619;-87
2022/12/08 05:58:57;;;;;;;1.98;0.98;;;3.70;99.90;;;;;;4803535;29;20133;-87
2022/12/08 06:01:28;;;;;;;3.35;0.80;;;3.30;99.90;;;;;;4816028;29;20034;-85
2022/12/08 06:03:54;;;;;;;2.47;0.60;;;3.30;99.90;;;;;;4801252;29;20042;-84
2022/12/08 06:06:20;;;;;;;4.35;0.57;;;3.30;99.90;;;;;;4799852;29;20504;-85
2022/12/08 06:08:46;;;;;;;4.13;0.85;;;3.30;99.90;;;;;;4800931;29;20052;-82
2022/12/08 06:11:20;;;;;;;4.40;0.93;;;3.20;99.90;;;;;;4801522;29;20046;-83
2022/12/08 06:13:47;;;;;;;3.22;0.80;;;3.30;99.90;;;;;;4800920;29;20086;-81
2022/12/08 06:16:12;;;;;;;2.55;0.63;;;3.30;99.90;;;;;;4801472;29;20068;-83
2022/12/08 06:18:38;;;;;;;1.73;0.60;;;3.20;99.90;;;;;;4785433;29;20046;-84
2022/12/08 06:21:09;;;;;;;1.52;0.50;;;3.20;99.90;;;;;;4783545;29;20054;-84
2022/12/08 06:23:35;;;;;;;1.38;0.52;;;3.20;99.90;;;;;;4815270;29;20677;-84
2022/12/08 06:26:02;;;;;;;3.60;0.80;;;3.10;99.90;;;;;;4801426;29;20050;-84
2022/12/08 06:28:29;;;;;;;4.20;0.70;;;3.10;99.90;;;;;;4821249;29;20085;-84
2022/12/08 06:30:55;;;;;;;5.57;1.00;;;3.10;99.90;;;;;;4798391;29;20047;-84
2022/12/08 06:33:21;;;;;;;2.17;0.80;;;3.20;99.90;;;;;;4798959;29;20045;-86
2022/12/08 06:35:49;;;;;;;2.53;0.80;;;3.10;99.90;;;;;;4817797;29;20058;-85
2022/12/08 06:38:20;;;;;;;4.15;0.77;;;3.10;99.90;;;;;;4810072;29;20050;-85
2022/12/08 06:40:53;;;;;;;4.93;0.80;;;3.20;99.90;;;;;;4801772;29;20056;-85
2022/12/08 06:43:43;;;;;;;3.33;0.90;;;3.10;99.90;;;;;;4804754;29;20050;-86
2022/12/08 06:46:37;;;;;;;6.53;0.85;;;3.10;99.90;;;;;;4820512;29;20457;-87
2022/12/08 06:49:02;;;;;;;2.95;0.70;;;3.00;99.90;;;;;;4800242;29;20062;-88
2022/12/08 06:51:41;;;;;;;1.95;1.10;;;3.20;99.90;;;;;;4781564;29;20398;-86
2022/12/08 06:54:20;;;;;;;2.60;0.52;;;3.20;99.90;;;;;;4797170;29;20053;-85
2022/12/08 06:56:45;;;;;;;1.48;0.73;;;3.20;99.90;;;;;;4800348;29;20046;-84
2022/12/08 06:59:11;;;;;;;5.30;0.88;;;3.60;99.90;;;;;;4799828;29;20050;-83
2022/12/08 07:01:36;;;;;;;3.63;0.80;;;3.20;99.90;;;;;;4800496;29;20050;-84
2022/12/08 07:04:02;;;;;;;3.33;0.60;;;3.20;99.90;;;;;;4804746;29;20399;-84
2022/12/08 07:06:27;;;;;;;1.10;0.30;;;3.20;99.90;;;;;;4805547;29;20042;-84
2022/12/08 07:08:53;;;;;;;3.05;0.45;;;3.10;99.90;;;;;;4805645;29;20042;-85
2022/12/08 07:11:19;;;;;;;1.00;0.20;;;3.20;99.90;;;;;;4806393;29;20583;-84
2022/12/08 07:13:45;;;;;;;3.58;0.45;;;3.10;99.90;;;;;;4805493;29;20553;-87
2022/12/08 07:16:11;;;;;;;1.55;0.40;;;3.10;99.90;;;;;;4788896;29;20126;-83
2022/12/08 07:18:37;;;;;;;6.25;0.50;;;3.10;99.90;;;;;;4822396;29;20516;-83
2022/12/08 07:21:09;;;;;;;3.95;0.57;;;3.10;99.90;;;;;;4806790;29;20103;-84
2022/12/08 07:23:35;;;;;;;3.80;0.60;;;3.10;99.90;;;;;;4809360;29;20046;-83
2022/12/08 07:26:02;;;;;;;6.85;0.45;;;3.00;99.90;;;;;;4812409;29;20046;-85
2022/12/08 07:28:43;;;;;;;3.58;0.45;;;3.50;99.90;;;;;;4787670;29;20042;-84
2022/12/08 07:31:30;;;;;;;6.38;1.42;;;3.00;99.90;;;;;;4820634;29;20039;-85
2022/12/08 07:34:15;;;;;;;5.57;0.70;;;3.00;99.90;;;;;;4799941;29;20518;-86
2022/12/08 07:36:56;;;;;;;3.20;0.30;;;3.80;99.90;;;;;;4790848;29;20125;-86
2022/12/08 07:39:29;;;;;;;4.05;0.32;;;3.10;99.90;;;;;;4823383;29;20525;-85
2022/12/08 07:41:55;;;;;;;3.13;0.60;;;2.90;99.90;;;;;;4809269;29;20046;-84
2022/12/08 07:44:21;;;;;;;1.42;0.50;;;3.10;99.90;;;;;;4804703;29;20050;-85
2022/12/08 07:47:05;;;;;;;1.90;0.57;;;3.80;99.90;;;;;;4815402;29;20045;-84
2022/12/08 07:49:31;;;;;;;1.05;0.30;;;3.70;99.90;;;;;;4801300;29;20045;-84
2022/12/08 07:51:56;;;;;;;3.22;0.65;;;2.90;99.90;;;;;;4790584;29;20101;-85
2022/12/08 07:54:22;;;;;;;2.78;0.63;;;2.90;99.90;;;;;;4805571;29;20176;-85
2022/12/08 07:56:49;;;;;;;3.88;0.57;;;2.90;99.90;;;;;;4804659;29;20065;-85
2022/12/08 07:59:16;;;;;;;4.07;0.40;;;2.80;99.90;;;;;;4804580;29;20510;-84
2022/12/08 08:01:41;;;;;;;3.17;0.55;;;2.60;99.90;;;;;;4802178;29;20047;-84
2022/12/08 08:04:07;;;;;;;3.10;0.50;;;2.80;99.90;;;;;;4802977;29;21399;-84
2022/12/08 08:06:54;;;;;;;2.97;0.60;;;2.80;99.90;;;;;;4809311;29;20037;-85
2022/12/08 08:09:20;;;;;;;2.97;0.63;;;2.60;99.90;;;;;;4805800;29;20046;-84
2022/12/08 08:11:45;;;;;;;2.10;0.40;;;2.80;99.90;;;;;;4798870;29;20039;-85
2022/12/08 08:14:22;;;;;;;5.25;0.60;;;2.80;99.90;;;;;;4808185;29;20042;-85
2022/12/08 08:16:53;;;;;;;9.50;0.68;;;2.80;99.90;;;;;;4807466;29;20095;-84
2022/12/08 08:19:18;;;;;;;3.90;0.85;;;2.80;99.90;;;;;;4784598;29;20054;-85
2022/12/08 08:21:44;;;;;;;5.43;0.75;;;2.70;99.90;;;;;;4787597;29;20061;-85
2022/12/08 08:24:10;;;;;;;1.77;0.40;;;2.70;99.90;;;;;;4808301;29;20129;-85
2022/12/08 08:26:36;;;;;;;6.20;0.65;;;2.60;99.90;;;;;;4809235;29;20064;-86
2022/12/08 08:29:02;;;;;;;2.00;0.45;;;2.70;99.90;;;;;;4810443;29;20046;-85
2022/12/08 08:31:28;;;;;;;1.15;0.25;;;3.80;99.90;;;;;;4804849;29;20097;-85
2022/12/08 08:33:55;;;;;;;5.05;0.60;;;2.60;99.90;;;;;;4808395;29;20038;-85
2022/12/08 08:36:21;;;;;;;4.00;0.65;;;2.50;99.90;;;;;;4806818;29;20134;-85
2022/12/08 08:38:46;;;;;;;4.72;0.40;;;2.50;99.90;;;;;;4805007;29;20038;-85
2022/12/08 08:41:12;;;;;;;7.30;0.47;;;2.50;99.90;;;;;;4808008;29;20057;-85
2022/12/08 08:43:38;;;;;;;2.08;0.40;;;2.50;99.90;;;;;;4807124;29;20073;-85
2022/12/08 08:46:05;;;;;;;5.03;0.60;;;2.50;99.90;;;;;;4805950;29;20605;-85
2022/12/08 08:48:31;;;;;;;5.82;0.55;;;2.50;99.90;;;;;;4805369;29;21686;-84
2022/12/08 08:50:57;;;;;;;1.15;0.38;;;2.50;99.90;;;;;;4804112;29;20076;-85
2022/12/08 08:53:24;;;;;;;4.10;0.43;;;2.50;99.90;;;;;;4821062;29;20073;-85
2022/12/08 08:55:50;;;;;;;7.75;0.50;;;2.70;99.90;;;;;;4803648;29;20048;-84
2022/12/08 08:58:16;;;;;;;2.90;0.45;;;2.40;99.90;;;;;;4818767;29;20075;-85
2022/12/08 09:00:41;;;;;;;7.25;0.40;;;2.40;99.90;;;;;;4803656;29;20054;-85
2022/12/08 09:03:07;;;;;;;4.47;1.42;;;2.40;99.90;;;;;;4819779;29;20057;-85
2022/12/08 09:05:33;;;;;;;2.80;0.50;;;2.40;99.90;;;;;;4820486;29;20096;-84
2022/12/08 09:07:58;;;;;;;2.70;0.77;;;2.80;99.90;;;;;;4803640;29;20100;-85
2022/12/08 09:10:24;;;;;;;4.65;0.60;;;2.80;99.90;;;;;;4807243;29;20054;-85
2022/12/08 09:12:50;;;;;;;10.07;0.98;;;2.90;99.90;;;;;;4804769;29;20042;-85
2022/12/08 09:15:16;;;;;;;1.35;0.32;;;2.40;99.90;;;;;;4823830;29;20050;-84
2022/12/08 09:17:42;;;;;;;6.53;0.50;;;2.40;99.90;;;;;;4804393;29;20046;-84
2022/12/08 09:20:08;;;;;;;3.20;0.40;;;2.40;99.90;;;;;;4804734;29;20046;-85
2022/12/08 09:22:33;;;;;;;4.22;0.57;;;2.40;99.90;;;;;;4820758;29;20050;-85
2022/12/08 09:24:59;;;;;;;4.70;0.70;;;2.40;99.90;;;;;;4821517;29;20050;-85
2022/12/08 09:27:24;;;;;;;4.93;0.60;;;2.40;99.90;;;;;;4802137;29;20057;-84
2022/12/08 09:29:50;;;;;;;5.88;0.77;;;2.90;99.90;;;;;;4808105;29;20058;-85
2022/12/08 09:32:16;;;;;;;2.65;0.50;;;2.40;99.90;;;;;;4819385;29;20050;-85
2022/12/08 09:34:42;;;;;;;1.00;0.30;;;3.20;99.90;;;;;;4808121;29;20064;-85
2022/12/08 09:37:07;;;;;;;1.50;0.30;;;2.40;99.90;;;;;;4819882;29;20087;-85
2022/12/08 09:39:33;;;;;;;4.00;0.52;;;2.40;99.90;;;;;;4807313;29;20102;-85
2022/12/08 09:42:01;;;;;;;4.18;1.25;;;2.40;99.90;;;;;;4804918;29;20051;-85
2022/12/08 09:44:27;;;;;;;2.92;0.70;;;2.40;99.90;;;;;;4807312;29;20158;-85
2022/12/08 09:46:54;;;;;;;3.15;0.52;;;2.40;99.90;;;;;;4802620;29;20141;-85
2022/12/08 09:49:50;;;;;;;4.47;1.15;;;2.40;99.90;;;;;;4803224;29;20570;-88
2022/12/08 09:52:31;;;;;;;2.20;0.43;;;2.50;99.90;;;;;;4805705;29;20181;-84
2022/12/08 09:55:19;;;;;;;2.50;0.43;;;2.60;99.90;;;;;;4821195;29;20048;-84
2022/12/08 09:58:16;;;;;;;2.38;0.35;;;2.40;99.90;;;;;;4816748;29;20038;-85
2022/12/08 10:00:42;;;;;;;5.45;0.75;;;2.50;99.90;;;;;;4804622;29;20050;-84
2022/12/08 10:03:13;;;;;;;3.80;0.57;;;2.40;99.90;;;;;;4802780;29;20045;-85
2022/12/08 10:06:26;;;;;;;2.25;0.90;;;2.40;99.90;;;;;;4818793;29;20046;-84
2022/12/08 10:09:30;;;;;;;3.15;0.95;;;2.40;99.90;;;;;;4796966;29;20061;-84
2022/12/08 10:48:32;;;;;;;3.28;2.13;;;3.30;99.90;;;;;;4714929;30;20056;-84
2022/12/08 10:51:04;;;;;;;;;;;3.30;99.90;;;;;;4716239;30;20061;-81
2022/12/08 10:54:40;;;;;;;4.82;1.50;;;3.30;99.90;;;;;;4729843;30;19926;-85
2022/12/08 11:01:44;;;;;;;4.18;1.73;;;3.40;99.90;;;;;;4698781;30;20138;-83
2022/12/08 11:04:51;;;;;;;3.35;1.88;;;4.00;99.90;;;;;;4684380;30;20073;-82
2022/12/08 11:07:57;;;;;;;4.13;2.40;;;4.00;99.90;;;;;;4721229;30;20064;-85
2022/12/08 11:33:41;;;;;;;1.88;0.90;;;5.30;99.90;;;;;;4826290;29;20041;-85
2022/12/08 11:36:14;;;;;;;2.42;0.70;;;5.40;99.90;;;;;;4772403;29;20058;-87
2022/12/08 11:43:16;;;;;;;3.50;0.68;;;5.60;99.90;;;;;;4802424;29;20036;-88
2022/12/08 11:49:38;;;;;;;4.55;0.98;;;5.70;99.90;;;;;;4753926;30;20051;-88
2022/12/08 11:52:21;;;;;;;3.67;0.80;;;5.90;99.90;;;;;;4722615;30;20926;-86
2022/12/08 11:54:59;;;;;;;5.80;0.80;;;5.90;99.90;;;;;;4781948;29;20054;-85
2022/12/08 11:57:32;;;;;;;5.10;0.85;;;5.90;99.90;;;;;;4787093;29;20475;-85
2022/12/08 11:59:59;;;;;;;2.67;0.73;;;6.20;99.90;;;;;;4784657;29;20506;-85
2022/12/08 12:02:30;;;;;;;2.63;1.00;;;7.00;99.90;;;;;;4819421;29;20050;-85
2022/12/08 12:05:23;;;;;;;4.45;1.00;;;6.00;99.90;;;;;;4818502;29;20049;-86
2022/12/08 12:08:39;;;;;;;3.80;0.90;;;5.90;99.90;;;;;;4803783;29;20435;-85
2022/12/08 12:14:48;;;;;;;4.13;0.90;;;5.70;99.90;;;;;;4806654;29;20447;-86
2022/12/08 12:17:45;;;;;;;5.50;0.98;;;5.70;99.90;;;;;;4805523;29;20052;-85
2022/12/08 12:20:53;;;;;;;4.53;1.02;;;5.60;99.90;;;;;;4796986;29;20051;-86
2022/12/08 12:23:52;;;;;;;3.80;1.45;;;5.50;99.90;;;;;;4799465;29;20059;-85
2022/12/08 12:26:22;;;;;;;6.32;1.17;;;5.60;99.90;;;;;;4800718;29;20050;-85
2022/12/08 12:29:10;;;;;;;3.78;1.33;;;5.50;99.90;;;;;;4805554;29;20062;-85
2022/12/08 12:31:42;;;;;;;3.83;0.90;;;5.50;99.90;;;;;;4804820;29;20435;-86
2022/12/08 12:34:36;;;;;;;3.30;1.15;;;5.40;99.90;;;;;;4803652;29;20101;-86
2022/12/08 12:37:09;;;;;;;2.55;0.50;;;5.30;99.90;;;;;;4805077;29;20046;-85
2022/12/08 12:39:57;;;;;;;4.95;0.68;;;5.20;99.90;;;;;;4807238;29;20056;-85
2022/12/08 12:42:50;;;;;;;6.20;0.63;;;5.10;99.90;;;;;;4820648;29;20054;-86
2022/12/08 12:45:16;;;;;;;3.95;0.82;;;5.10;99.90;;;;;;4802705;29;20150;-86
2022/12/08 12:47:50;;;;;;;2.45;0.50;;;5.00;99.90;;;;;;4791470;29;20425;-86
2022/12/08 12:50:31;;;;;;;3.70;0.50;;;5.00;99.90;;;;;;4803751;29;20062;-85
2022/12/08 12:53:17;;;;;;;2.58;0.50;;;4.90;99.90;;;;;;4807058;29;20124;-86
2022/12/08 12:56:01;;;;;;;1.60;0.20;;;4.90;99.90;;;;;;4820232;29;20061;-86
2022/12/08 12:58:26;;;;;;;4.57;0.30;;;4.80;99.90;;;;;;4796432;29;20030;-86
2022/12/08 13:01:12;;;;;;;2.28;0.28;;;4.80;99.90;;;;;;4803513;29;20135;-86
2022/12/08 13:04:15;;;;;;;2.53;0.35;;;4.80;99.90;;;;;;4805828;29;20050;-86
2022/12/08 13:07:00;;;;;;;3.17;0.22;;;4.80;99.90;;;;;;4765639;29;20630;-85
2022/12/08 13:09:31;;;;;;;6.00;0.40;;;4.70;99.90;;;;;;4816781;29;20056;-85
2022/12/08 13:12:09;;;;;;;3.90;0.28;;;4.80;99.90;;;;;;4802979;29;20054;-86
2022/12/08 13:14:53;;;;;;;1.13;0.20;;;4.80;99.90;;;;;;4822086;29;20046;-85
2022/12/08 13:17:27;;;;;;;3.72;0.30;;;4.80;99.90;;;;;;4822130;29;20030;-86
2022/12/08 13:19:56;;;;;;;4.80;0.82;;;4.80;99.90;;;;;;4805530;29;20121;-85
2022/12/08 13:33:29;;;;;;;3.35;0.60;;;4.80;99.90;;;;;;5095268;27;20411;-86
2022/12/08 13:36:24;;;;;;;5.28;0.60;;;5.50;99.90;;;;;;5038451;28;20047;-86
2022/12/08 13:39:11;;;;;;;6.03;0.50;;;5.00;99.90;;;;;;5056801;28;20101;-86
2022/12/08 13:41:43;;;;;;;3.25;0.57;;;4.90;99.90;;;;;;5047360;28;20040;-85
2022/12/08 13:44:37;;;;;;;5.03;0.47;;;4.90;99.90;;;;;;5046089;28;20491;-84
2022/12/08 13:47:05;;;;;;;5.50;0.63;;;5.00;99.90;;;;;;5063806;28;20440;-85
2022/12/08 13:50:11;;;;;;;5.25;0.75;;;5.10;99.90;;;;;;5047406;28;20157;-87
2022/12/08 13:52:48;;;;;;;5.07;0.43;;;5.10;99.90;;;;;;5056547;28;20127;-84
2022/12/08 13:55:45;;;;;;;6.32;0.88;;;5.10;99.90;;;;;;5044148;28;20611;-84
2022/12/08 13:58:33;;;;;;;4.63;0.60;;;5.00;99.90;;;;;;5054751;28;20037;-85
2022/12/08 14:01:19;;;;;;;2.78;0.40;;;5.00;99.90;;;;;;5056379;28;20049;-85
2022/12/08 14:03:51;;;;;;;;;;;4.80;99.90;;;;;;5046157;28;20054;-85
2022/12/08 14:06:20;;;;;;;4.03;0.57;;;4.70;99.90;;;;;;5078199;28;20338;-85
2022/12/08 14:08:53;;;;;;;5.63;0.80;;;4.70;99.90;;;;;;5057094;28;20123;-85
2022/12/08 14:11:32;;;;;;;8.85;0.70;;;4.60;99.90;;;;;;5058297;28;20041;-85
2022/12/08 14:14:00;;;;;;;5.30;0.60;;;4.60;99.90;;;;;;5054570;28;20043;-85
2022/12/08 14:16:37;;;;;;;4.85;0.70;;;4.50;99.90;;;;;;5059370;28;20050;-86
2022/12/08 14:19:16;;;;;;;4.60;0.98;;;4.50;99.90;;;;;;5053309;28;20036;-84
2022/12/08 14:21:46;;;;;;;5.47;0.63;;;4.50;99.90;;;;;;5074323;28;20045;-85
2022/12/08 14:24:12;;;;;;;5.97;0.60;;;4.50;99.90;;;;;;5060891;28;20032;-85
2022/12/08 14:26:38;;;;;;;8.73;0.45;;;4.50;99.90;;;;;;5054525;28;20036;-85
2022/12/08 14:29:07;;;;;;;3.90;0.40;;;4.40;99.90;;;;;;5053632;28;20086;-85
2022/12/08 14:31:33;;;;;;;5.57;1.10;;;4.30;99.90;;;;;;5069664;28;20056;-86
2022/12/08 14:33:58;;;;;;;3.38;0.90;;;4.30;99.90;;;;;;5074936;28;20036;-85
2022/12/08 14:36:24;;;;;;;2.90;0.50;;;4.30;99.90;;;;;;5062836;28;20398;-85
2022/12/08 14:38:53;;;;;;;3.28;0.68;;;4.30;99.90;;;;;;5044752;28;20033;-86
2022/12/08 14:41:26;;;;;;;3.60;1.90;;;4.30;99.90;;;;;;5055522;28;20410;-87
2022/12/08 14:44:22;;;;;;;8.75;3.47;;;4.20;99.90;;;;;;5039568;28;20086;-87
2022/12/08 14:47:09;;;;;;;8.10;2.40;;;4.30;99.90;;;;;;5043410;28;20044;-87
2022/12/08 14:49:37;;;;;;;5.07;1.33;;;4.20;99.90;;;;;;5059355;28;20072;-87
2022/12/08 14:52:11;;;;;;;5.40;0.68;;;4.30;99.90;;;;;;5042649;28;20033;-85
2022/12/08 14:54:38;;;;;;;4.85;0.50;;;4.20;99.90;;;;;;5060825;28;20055;-86
2022/12/08 14:57:04;;;;;;;2.38;0.40;;;4.10;99.90;;;;;;5042116;28;20414;-85
2022/12/08 14:59:34;;;;;;;4.47;0.65;;;4.10;99.90;;;;;;5041761;28;20049;-86
2022/12/08 15:02:11;;;;;;;4.63;0.73;;;4.00;99.90;;;;;;5045063;28;20048;-86
2022/12/08 15:04:39;;;;;;;5.10;1.08;;;4.00;99.90;;;;;;5040461;28;20040;-86